Time;durP1;ratioP1;P1;durP2;ratioP2;P2;SDS_P1;SDS_P2;PMS_P1;PMS_P2;Temp;Humidity;BMP_temperature;BMP_pressure;BME280_temperature;BME280_humidity;BME280_pressure;Samples;Min_cycle;Max_cycle;Signal;HPM_P1;HPM_P2
2023/04/11 00:00:29;;;;;;;6.53;2.40;;;8.40;99.90;;;;;;5075106;28;20039;-84
2023/04/11 00:03:02;;;;;;;4.22;1.15;;;8.40;99.90;;;;;;5076879;28;20423;-85
2023/04/11 00:05:32;;;;;;;10.60;1.88;;;8.30;99.90;;;;;;5076753;28;20055;-85
2023/04/11 00:07:58;;;;;;;4.80;1.48;;;8.20;99.90;;;;;;5059173;28;20131;-85
2023/04/11 00:10:24;;;;;;;5.50;1.90;;;8.30;99.90;;;;;;5077666;28;20150;-85
2023/04/11 00:12:49;;;;;;;6.25;1.63;;;8.30;99.90;;;;;;5064552;28;20040;-84
2023/04/11 00:15:16;;;;;;;6.45;1.98;;;8.20;99.90;;;;;;5076691;28;20411;-83
2023/04/11 00:17:44;;;;;;;6.45;1.75;;;8.20;99.90;;;;;;5064047;28;20472;-86
2023/04/11 00:20:11;;;;;;;3.88;1.50;;;8.10;99.90;;;;;;5078566;28;20040;-85
2023/04/11 00:22:42;;;;;;;6.47;1.63;;;8.10;99.90;;;;;;5077174;28;20054;-85
2023/04/11 00:25:08;;;;;;;7.10;1.90;;;8.00;99.90;;;;;;5078148;28;20031;-85
2023/04/11 00:27:34;;;;;;;6.40;2.25;;;8.00;99.90;;;;;;5061135;28;20434;-85
2023/04/11 00:30:00;;;;;;;5.68;2.13;;;7.90;99.90;;;;;;5081621;28;20042;-85
2023/04/11 00:32:26;;;;;;;9.63;2.15;;;7.90;99.90;;;;;;5067434;28;20079;-85
2023/04/11 00:34:51;;;;;;;5.82;1.90;;;7.90;99.90;;;;;;5077315;28;20052;-85
2023/04/11 00:37:20;;;;;;;6.05;1.90;;;7.80;99.90;;;;;;5079582;28;20238;-85
2023/04/11 00:39:51;;;;;;;7.60;1.80;;;7.80;99.90;;;;;;5076947;28;20050;-85
2023/04/11 00:42:18;;;;;;;9.27;2.20;;;7.70;99.90;;;;;;5061143;28;20028;-85
2023/04/11 00:44:43;;;;;;;8.30;2.63;;;7.70;99.90;;;;;;5076035;28;20037;-85
2023/04/11 00:47:10;;;;;;;7.28;2.30;;;7.70;99.90;;;;;;5079410;28;20046;-85
2023/04/11 00:49:40;;;;;;;10.43;2.38;;;7.70;99.90;;;;;;5076420;28;20332;-86
2023/04/11 00:52:06;;;;;;;8.02;1.95;;;7.60;99.90;;;;;;5076817;28;20048;-85
2023/04/11 00:54:32;;;;;;;7.53;1.92;;;7.70;99.90;;;;;;5080379;28;20392;-85
2023/04/11 00:56:59;;;;;;;7.93;2.13;;;7.60;99.90;;;;;;5112310;27;20062;-85
2023/04/11 00:59:30;;;;;;;5.32;1.83;;;7.60;99.90;;;;;;5060529;28;20036;-85
2023/04/11 01:01:57;;;;;;;7.60;1.70;;;7.50;99.90;;;;;;5063989;28;20040;-84
2023/04/11 01:04:23;;;;;;;7.25;1.65;;;7.50;99.90;;;;;;5062986;28;20128;-85
2023/04/11 01:06:52;;;;;;;7.80;1.63;;;7.50;99.90;;;;;;5075589;28;20119;-85
2023/04/11 01:09:24;;;;;;;7.55;1.63;;;7.40;99.90;;;;;;5076733;28;20466;-85
2023/04/11 01:11:50;;;;;;;6.38;1.70;;;7.40;99.90;;;;;;5077942;28;20078;-85
2023/04/11 01:14:17;;;;;;;8.25;2.17;;;7.40;99.90;;;;;;5061838;28;20445;-86
2023/04/11 01:16:45;;;;;;;8.63;1.92;;;7.40;99.90;;;;;;5068882;28;20036;-85
2023/04/11 01:19:17;;;;;;;12.18;2.00;;;7.40;99.90;;;;;;5075657;28;20071;-86
2023/04/11 01:21:43;;;;;;;6.10;1.70;;;7.40;99.90;;;;;;5061473;28;20036;-85
2023/04/11 01:24:10;;;;;;;8.05;2.10;;;7.30;99.90;;;;;;5077990;28;20426;-85
2023/04/11 01:26:36;;;;;;;8.05;2.47;;;7.30;99.90;;;;;;5079916;28;20036;-86
2023/04/11 01:29:02;;;;;;;10.63;2.30;;;7.30;99.90;;;;;;5065338;28;20066;-85
2023/04/11 01:31:28;;;;;;;8.02;1.77;;;7.30;99.90;;;;;;5067975;28;20036;-85
2023/04/11 01:33:54;;;;;;;8.15;2.17;;;7.30;99.90;;;;;;5078356;28;20051;-85
2023/04/11 01:36:20;;;;;;;7.05;1.63;;;7.30;99.90;;;;;;5064799;28;20052;-85
2023/04/11 01:38:46;;;;;;;7.18;2.00;;;7.30;99.90;;;;;;5078886;28;20044;-85
2023/04/11 01:41:13;;;;;;;9.75;2.10;;;7.40;99.90;;;;;;5080633;28;20445;-85
2023/04/11 01:43:38;;;;;;;11.57;2.10;;;7.40;99.90;;;;;;5064606;28;20071;-85
2023/04/11 01:46:04;;;;;;;8.35;2.25;;;7.40;99.90;;;;;;5064055;28;20059;-86
2023/04/11 01:48:33;;;;;;;8.90;2.05;;;7.50;99.90;;;;;;5077978;28;20061;-85
2023/04/11 01:50:58;;;;;;;10.13;2.10;;;7.50;99.90;;;;;;5068419;28;20043;-85
2023/04/11 01:53:24;;;;;;;7.45;2.05;;;7.60;99.90;;;;;;5064365;28;20036;-86
2023/04/11 01:55:50;;;;;;;10.05;3.17;;;7.70;99.90;;;;;;5082623;28;20040;-85
2023/04/11 01:58:15;;;;;;;9.15;2.10;;;7.70;99.90;;;;;;5064377;28;20043;-85
2023/04/11 02:00:41;;;;;;;7.80;2.15;;;7.80;99.90;;;;;;5066843;28;20705;-85
2023/04/11 02:03:07;;;;;;;6.30;1.70;;;7.70;99.90;;;;;;5063341;28;20036;-85
2023/04/11 02:05:32;;;;;;;7.35;1.98;;;7.80;99.90;;;;;;5067071;28;20036;-85
2023/04/11 02:07:58;;;;;;;7.05;2.00;;;7.80;99.90;;;;;;5064918;28;20056;-84
2023/04/11 02:10:27;;;;;;;4.30;1.95;;;7.90;99.90;;;;;;5078297;28;20820;-85
2023/04/11 02:12:52;;;;;;;6.35;1.30;;;7.90;99.90;;;;;;5066302;28;20043;-85
2023/04/11 02:15:18;;;;;;;5.70;1.65;;;7.90;99.90;;;;;;5095410;27;20043;-85
2023/04/11 02:17:44;;;;;;;4.03;1.20;;;7.90;99.90;;;;;;5065728;28;20108;-84
2023/04/11 02:20:12;;;;;;;4.35;1.60;;;7.90;99.90;;;;;;5078705;28;20039;-86
2023/04/11 02:22:38;;;;;;;5.68;1.17;;;7.80;99.90;;;;;;5078102;28;20096;-85
2023/04/11 02:25:05;;;;;;;5.95;1.50;;;7.90;99.90;;;;;;5069865;28;20043;-85
2023/04/11 02:27:33;;;;;;;4.07;1.40;;;7.90;99.90;;;;;;5060498;28;20368;-85
2023/04/11 02:29:59;;;;;;;2.90;1.52;;;7.90;99.90;;;;;;5079015;28;20036;-86
2023/04/11 02:32:26;;;;;;;3.78;1.02;;;7.90;99.90;;;;;;5062355;28;20037;-85
2023/04/11 02:34:52;;;;;;;6.72;1.63;;;7.90;99.90;;;;;;5079122;28;20074;-84
2023/04/11 02:37:18;;;;;;;6.88;1.27;;;7.90;99.90;;;;;;5078722;28;20506;-85
2023/04/11 02:39:44;;;;;;;7.28;1.67;;;7.90;99.90;;;;;;5065536;28;20101;-85
2023/04/11 02:42:11;;;;;;;8.88;1.83;;;7.90;99.90;;;;;;5063880;28;20043;-85
2023/04/11 02:44:37;;;;;;;4.43;1.45;;;7.90;99.90;;;;;;5065001;28;20040;-85
2023/04/11 02:47:03;;;;;;;4.65;1.27;;;7.90;99.90;;;;;;5082075;28;20055;-85
2023/04/11 02:49:28;;;;;;;4.82;1.52;;;7.90;99.90;;;;;;5066058;28;20105;-85
2023/04/11 02:51:54;;;;;;;5.03;1.55;;;7.90;99.90;;;;;;5082882;28;20077;-85
2023/04/11 02:54:19;;;;;;;4.57;1.40;;;7.90;99.90;;;;;;5063607;28;20463;-84
2023/04/11 02:56:45;;;;;;;4.07;0.93;;;7.80;99.90;;;;;;5079392;28;20036;-84
2023/04/11 02:59:14;;;;;;;2.33;1.45;;;7.80;99.90;;;;;;5063759;28;20112;-85
2023/04/11 03:01:39;;;;;;;3.58;1.48;;;7.80;99.90;;;;;;5075965;28;20119;-85
2023/04/11 03:04:06;;;;;;;3.03;1.23;;;7.70;99.90;;;;;;5077223;28;20123;-85
2023/04/11 03:06:32;;;;;;;2.17;1.20;;;7.70;99.90;;;;;;5078023;28;20032;-85
2023/04/11 03:08:57;;;;;;;3.22;1.55;;;7.70;99.90;;;;;;5077620;28;20047;-84
2023/04/11 03:11:23;;;;;;;3.25;1.30;;;7.70;99.90;;;;;;5081716;28;20153;-84
2023/04/11 03:13:49;;;;;;;5.75;1.30;;;7.70;99.90;;;;;;5060022;28;20909;-84
2023/04/11 03:16:18;;;;;;;3.35;1.35;;;7.70;99.90;;;;;;5065739;28;20447;-84
2023/04/11 03:18:44;;;;;;;6.28;1.30;;;7.70;99.90;;;;;;5079149;28;20063;-85
2023/04/11 03:21:10;;;;;;;5.35;1.30;;;7.70;99.90;;;;;;5065344;28;20036;-84
2023/04/11 03:23:37;;;;;;;4.57;1.73;;;7.70;99.90;;;;;;5078540;28;20961;-84
2023/04/11 03:26:06;;;;;;;2.78;1.40;;;7.60;99.90;;;;;;5077566;28;20059;-85
2023/04/11 03:28:32;;;;;;;3.70;1.42;;;7.60;99.90;;;;;;5094068;27;20040;-85
2023/04/11 03:30:58;;;;;;;3.88;1.60;;;7.60;99.90;;;;;;5077466;28;20525;-85
2023/04/11 03:33:23;;;;;;;5.53;1.52;;;7.60;99.90;;;;;;5062011;28;20040;-85
2023/04/11 03:35:49;;;;;;;5.10;1.35;;;7.60;99.90;;;;;;5078779;28;20463;-85
2023/04/11 03:38:14;;;;;;;4.65;1.60;;;7.70;99.90;;;;;;5080625;28;20036;-84
2023/04/11 03:40:40;;;;;;;4.75;1.73;;;7.80;99.90;;;;;;5095519;27;20033;-85
2023/04/11 03:43:06;;;;;;;6.13;1.60;;;7.80;99.90;;;;;;5078044;28;20183;-85
2023/04/11 03:45:32;;;;;;;6.07;1.58;;;7.80;99.90;;;;;;5064304;28;20036;-84
2023/04/11 03:47:58;;;;;;;5.13;1.60;;;7.90;99.90;;;;;;5063794;28;20744;-85
2023/04/11 03:50:26;;;;;;;8.13;1.77;;;7.80;99.90;;;;;;5063158;28;20126;-85
2023/04/11 03:52:52;;;;;;;7.35;1.90;;;7.90;99.90;;;;;;5075640;28;20055;-85
2023/04/11 03:55:17;;;;;;;6.47;2.05;;;7.90;99.90;;;;;;5066584;28;20126;-85
2023/04/11 03:57:43;;;;;;;4.95;2.28;;;7.90;99.90;;;;;;5062740;28;20044;-85
2023/04/11 04:00:09;;;;;;;9.38;2.72;;;7.90;99.90;;;;;;5078563;28;20063;-85
2023/04/11 04:02:35;;;;;;;14.02;2.60;;;7.90;99.90;;;;;;5080590;28;20039;-84
2023/04/11 04:05:01;;;;;;;10.77;2.15;;;8.00;99.90;;;;;;5080117;28;20419;-85
2023/04/11 04:07:30;;;;;;;8.63;2.25;;;8.00;99.90;;;;;;5063255;28;20040;-85
2023/04/11 04:09:56;;;;;;;11.48;2.50;;;8.00;99.90;;;;;;5078135;28;20084;-85
2023/04/11 04:12:22;;;;;;;10.98;2.60;;;8.10;99.90;;;;;;5062045;28;20453;-84
2023/04/11 04:14:47;;;;;;;5.45;2.08;;;8.10;99.90;;;;;;5076715;28;20048;-84
2023/04/11 04:17:15;;;;;;;11.55;2.80;;;8.10;99.90;;;;;;5061582;28;20065;-85
2023/04/11 04:19:42;;;;;;;9.82;2.92;;;8.10;99.90;;;;;;5094551;27;20047;-85
2023/04/11 04:22:10;;;;;;;8.30;2.50;;;8.10;99.90;;;;;;5075405;28;20166;-84
2023/04/11 04:24:38;;;;;;;8.07;2.15;;;8.10;99.90;;;;;;5062957;28;20044;-85
2023/04/11 04:27:07;;;;;;;10.13;2.28;;;8.00;99.90;;;;;;5065028;28;20112;-84
2023/04/11 04:29:37;;;;;;;10.60;2.38;;;8.10;99.90;;;;;;5075494;28;20047;-84
2023/04/11 04:32:09;;;;;;;7.90;2.50;;;8.00;99.90;;;;;;5078553;28;20122;-84
2023/04/11 04:34:53;;;;;;;11.02;2.42;;;8.10;99.90;;;;;;5063312;28;20044;-85
2023/04/11 04:37:25;;;;;;;8.53;2.53;;;8.00;99.90;;;;;;5078880;28;20059;-84
2023/04/11 04:39:56;;;;;;;10.18;3.05;;;8.10;99.90;;;;;;5074981;28;20040;-84
2023/04/11 04:42:26;;;;;;;8.73;2.60;;;8.10;99.90;;;;;;5058408;28;20035;-85
2023/04/11 04:44:54;;;;;;;9.00;2.83;;;8.10;99.90;;;;;;5061228;28;20093;-85
2023/04/11 04:47:24;;;;;;;6.78;2.58;;;8.10;99.90;;;;;;5064120;28;20036;-84
2023/04/11 04:49:56;;;;;;;7.35;2.83;;;8.10;99.90;;;;;;5074621;28;20124;-85
2023/04/11 04:52:26;;;;;;;13.90;3.25;;;8.10;99.90;;;;;;5076331;28;20039;-85
2023/04/11 04:54:56;;;;;;;7.95;2.90;;;8.20;99.90;;;;;;5064596;28;20067;-85
2023/04/11 04:57:26;;;;;;;15.20;3.42;;;8.10;99.90;;;;;;5061530;28;20512;-85
2023/04/11 04:59:53;;;;;;;7.90;2.90;;;8.10;99.90;;;;;;5061301;28;20100;-85
2023/04/11 05:02:18;;;;;;;10.77;3.22;;;8.10;99.90;;;;;;5078228;28;20077;-85
2023/04/11 05:04:44;;;;;;;8.32;3.05;;;8.00;99.90;;;;;;5058074;28;20040;-85
2023/04/11 05:07:13;;;;;;;9.68;2.67;;;7.90;99.90;;;;;;5076973;28;20492;-85
2023/04/11 05:09:40;;;;;;;7.00;2.67;;;7.90;99.90;;;;;;5075842;28;20039;-84
2023/04/11 05:12:06;;;;;;;7.85;3.10;;;7.90;99.90;;;;;;5064543;28;20055;-85
2023/04/11 05:14:31;;;;;;;8.98;2.72;;;7.90;99.90;;;;;;5074592;28;20487;-84
2023/04/11 05:16:57;;;;;;;11.55;2.90;;;7.90;99.90;;;;;;5061653;28;20423;-85
2023/04/11 05:19:23;;;;;;;15.88;3.03;;;7.90;99.90;;;;;;5064700;28;20070;-85
2023/04/11 05:21:48;;;;;;;7.43;2.38;;;7.90;99.90;;;;;;5077891;28;20024;-85
2023/04/11 05:24:14;;;;;;;14.10;3.08;;;7.90;99.90;;;;;;5098481;28;20471;-91
2023/04/11 05:26:40;;;;;;;10.85;3.15;;;8.00;99.90;;;;;;5083992;28;20052;-90
2023/04/11 05:29:05;;;;;;;10.52;2.70;;;8.00;99.90;;;;;;5080500;28;20036;-90
2023/04/11 05:31:31;;;;;;;8.98;2.40;;;8.00;99.90;;;;;;5066833;28;20132;-89
2023/04/11 05:33:57;;;;;;;12.63;3.22;;;8.00;99.90;;;;;;5064546;28;20102;-90
2023/04/11 05:36:24;;;;;;;10.35;2.58;;;8.10;99.90;;;;;;5063024;28;20064;-89
2023/04/11 05:38:49;;;;;;;11.52;2.70;;;8.00;99.90;;;;;;5084170;28;20050;-90
2023/04/11 05:41:15;;;;;;;10.10;2.70;;;8.00;99.90;;;;;;5098326;28;20032;-91
2023/04/11 05:43:41;;;;;;;10.25;2.40;;;8.00;99.90;;;;;;5059921;28;20131;-90
2023/04/11 05:46:11;;;;;;;11.57;2.88;;;8.00;99.90;;;;;;5068654;28;20043;-90
2023/04/11 05:48:37;;;;;;;9.13;2.50;;;8.00;99.90;;;;;;5077491;28;20501;-90
2023/04/11 05:51:02;;;;;;;7.35;2.65;;;8.00;99.90;;;;;;5081621;28;20040;-91
2023/04/11 05:53:28;;;;;;;8.82;2.72;;;8.10;99.90;;;;;;5080790;28;20549;-90
2023/04/11 05:55:54;;;;;;;7.82;2.90;;;8.10;99.90;;;;;;5080687;28;20036;-90
2023/04/11 05:58:19;;;;;;;10.75;3.10;;;8.10;99.90;;;;;;5082667;28;20079;-91
2023/04/11 06:00:45;;;;;;;10.38;2.92;;;8.10;99.90;;;;;;5081021;28;20073;-90
2023/04/11 06:03:14;;;;;;;8.68;2.40;;;8.10;99.90;;;;;;5079992;28;20032;-91
2023/04/11 06:05:39;;;;;;;9.38;3.00;;;8.20;99.90;;;;;;5066008;28;20071;-91
2023/04/11 06:08:07;;;;;;;9.68;2.33;;;8.20;99.90;;;;;;5067711;28;20081;-90
2023/04/11 06:10:33;;;;;;;14.15;3.10;;;8.20;99.90;;;;;;5078526;28;20071;-91
2023/04/11 06:13:01;;;;;;;7.13;2.65;;;8.20;99.90;;;;;;5079836;28;20097;-90
2023/04/11 06:15:30;;;;;;;13.07;2.70;;;8.20;99.90;;;;;;5079899;28;20040;-90
2023/04/11 06:17:56;;;;;;;6.18;2.67;;;8.20;99.90;;;;;;5095415;27;20036;-90
2023/04/11 06:20:22;;;;;;;6.05;2.30;;;8.20;99.90;;;;;;5097631;27;20032;-90
2023/04/11 06:22:50;;;;;;;7.55;2.60;;;8.30;99.90;;;;;;5089771;28;20046;-90
2023/04/11 06:25:20;;;;;;;9.93;2.65;;;8.30;99.90;;;;;;5081791;28;20033;-91
2023/04/11 06:27:46;;;;;;;6.53;2.17;;;8.30;99.90;;;;;;5067707;28;20608;-90
2023/04/11 06:30:13;;;;;;;5.70;2.35;;;8.40;99.90;;;;;;5067314;28;20047;-90
2023/04/11 06:32:38;;;;;;;13.63;2.83;;;8.40;99.90;;;;;;5068899;28;20051;-90
2023/04/11 06:35:04;;;;;;;8.00;2.90;;;8.40;99.90;;;;;;5066396;28;20298;-90
2023/04/11 06:37:30;;;;;;;8.82;2.17;;;8.40;99.90;;;;;;5083408;28;20495;-90
2023/04/11 06:39:57;;;;;;;10.23;2.60;;;8.40;99.90;;;;;;5073661;28;20051;-90
2023/04/11 06:42:26;;;;;;;14.23;2.90;;;8.40;99.90;;;;;;5068654;28;20559;-90
2023/04/11 06:44:52;;;;;;;9.13;2.63;;;8.50;99.90;;;;;;5083498;28;20625;-90
2023/04/11 06:47:17;;;;;;;9.35;2.67;;;8.50;99.90;;;;;;5070832;28;20174;-90
2023/04/11 06:49:43;;;;;;;10.32;2.53;;;8.50;99.90;;;;;;5067573;28;20055;-90
2023/04/11 06:52:09;;;;;;;7.38;2.53;;;8.60;99.90;;;;;;5100388;27;20115;-90
2023/04/11 06:54:35;;;;;;;10.70;2.75;;;8.70;99.90;;;;;;5083983;28;20414;-90
2023/04/11 06:57:02;;;;;;;9.38;2.70;;;8.60;99.90;;;;;;5084820;28;20607;-89
2023/04/11 06:59:31;;;;;;;9.27;2.72;;;8.70;99.90;;;;;;5071809;28;20066;-89
2023/04/11 07:01:58;;;;;;;9.70;2.50;;;8.80;99.90;;;;;;5068431;28;20033;-90
2023/04/11 07:04:23;;;;;;;7.70;2.13;;;8.70;99.90;;;;;;5085252;28;20510;-91
2023/04/11 07:06:49;;;;;;;4.05;1.38;;;8.40;99.90;;;;;;5083580;28;20032;-91
2023/04/11 07:09:15;;;;;;;4.18;1.88;;;7.20;99.90;;;;;;5067023;28;20044;-90
2023/04/11 07:11:40;;;;;;;10.18;2.40;;;7.20;99.90;;;;;;5068851;28;20040;-89
2023/04/11 07:14:06;;;;;;;7.45;2.25;;;7.30;99.90;;;;;;5076981;28;20574;-90
2023/04/11 07:16:34;;;;;;;11.48;2.80;;;7.40;99.90;;;;;;5083302;28;20539;-88
2023/04/11 07:19:02;;;;;;;11.88;2.75;;;7.60;99.90;;;;;;5098691;27;20044;-89
2023/04/11 07:21:29;;;;;;;14.88;2.80;;;7.80;99.90;;;;;;5083572;28;20047;-89
2023/04/11 07:23:55;;;;;;;11.15;2.88;;;8.00;99.90;;;;;;5079006;28;20067;-89
2023/04/11 07:26:22;;;;;;;12.80;2.20;;;8.30;99.90;;;;;;5081498;28;20032;-88
2023/04/11 07:28:51;;;;;;;9.68;2.83;;;8.40;99.90;;;;;;5079654;28;20548;-88
2023/04/11 07:31:18;;;;;;;13.65;2.72;;;8.30;99.90;;;;;;5082864;28;20076;-89
2023/04/11 07:33:44;;;;;;;16.30;2.50;;;8.30;99.90;;;;;;5081957;28;20039;-90
2023/04/11 07:36:10;;;;;;;10.07;2.85;;;8.50;99.90;;;;;;5085251;28;20072;-89
2023/04/11 07:38:36;;;;;;;12.25;2.42;;;8.70;99.90;;;;;;5067050;28;20060;-89
2023/04/11 07:41:05;;;;;;;9.15;2.63;;;8.70;99.90;;;;;;5068888;28;20036;-89
2023/04/11 07:43:31;;;;;;;9.55;2.30;;;8.70;99.90;;;;;;5079623;28;20479;-90
2023/04/11 07:45:57;;;;;;;11.60;3.08;;;8.80;99.90;;;;;;5062040;28;20048;-90
2023/04/11 07:48:25;;;;;;;12.77;2.88;;;8.80;99.90;;;;;;5071843;28;20055;-90
2023/04/11 07:50:52;;;;;;;12.85;2.45;;;8.90;99.90;;;;;;5079916;28;20050;-90
2023/04/11 07:53:17;;;;;;;10.57;2.70;;;9.10;99.90;;;;;;5077061;28;20066;-90
2023/04/11 07:55:47;;;;;;;11.60;2.60;;;9.10;99.90;;;;;;5084548;28;20498;-89
2023/04/11 07:58:12;;;;;;;9.30;2.28;;;9.20;99.90;;;;;;5083486;28;20182;-90
2023/04/11 08:00:38;;;;;;;10.18;2.97;;;9.00;99.90;;;;;;5080346;28;20493;-89
2023/04/11 08:03:05;;;;;;;11.77;2.58;;;9.00;99.90;;;;;;5082130;28;20138;-89
2023/04/11 08:05:32;;;;;;;7.43;2.40;;;9.00;99.90;;;;;;5065134;28;20036;-89
2023/04/11 08:07:58;;;;;;;8.57;2.45;;;9.00;99.90;;;;;;5081473;28;20044;-89
2023/04/11 08:10:27;;;;;;;8.55;2.00;;;9.00;99.90;;;;;;5066169;28;20040;-89
2023/04/11 08:12:53;;;;;;;8.27;2.30;;;9.10;99.90;;;;;;5068193;28;20571;-90
2023/04/11 08:15:19;;;;;;;9.18;2.80;;;9.20;99.90;;;;;;5066388;28;20036;-90
2023/04/11 08:17:45;;;;;;;8.63;2.60;;;9.30;99.90;;;;;;5083323;28;20028;-90
2023/04/11 08:20:11;;;;;;;10.85;2.40;;;9.20;99.90;;;;;;5069467;28;20081;-89
2023/04/11 08:22:43;;;;;;;8.85;2.40;;;9.60;99.90;;;;;;5081074;28;20554;-90
2023/04/11 08:25:10;;;;;;;9.50;2.33;;;9.70;99.90;;;;;;5104275;27;20070;-90
2023/04/11 08:27:37;;;;;;;9.98;2.60;;;9.60;99.90;;;;;;5084071;28;20044;-90
2023/04/11 08:30:07;;;;;;;7.53;2.55;;;9.60;99.90;;;;;;5083232;28;20051;-90
2023/04/11 08:32:36;;;;;;;6.85;1.80;;;9.80;99.90;;;;;;5080220;28;20933;-90
2023/04/11 08:35:02;;;;;;;10.43;2.28;;;9.70;99.90;;;;;;5082403;28;20044;-90
2023/04/11 08:37:29;;;;;;;5.85;2.05;;;9.70;99.90;;;;;;5079898;28;20087;-90
2023/04/11 08:39:55;;;;;;;10.65;2.50;;;9.40;99.90;;;;;;5065740;28;20032;-90
2023/04/11 08:42:26;;;;;;;7.72;2.05;;;9.80;99.90;;;;;;5065630;28;20502;-89
2023/04/11 08:44:53;;;;;;;13.27;2.10;;;9.60;99.90;;;;;;5073790;28;20046;-90
2023/04/11 08:47:25;;;;;;;8.52;2.05;;;9.70;99.90;;;;;;5070753;28;20032;-89
2023/04/11 08:49:55;;;;;;;8.43;2.13;;;9.90;99.90;;;;;;5066149;28;20563;-90
2023/04/11 08:52:22;;;;;;;8.85;1.70;;;9.90;99.90;;;;;;5069317;28;20035;-90
2023/04/11 08:54:50;;;;;;;4.30;1.38;;;9.90;99.90;;;;;;5066617;28;20132;-90
2023/04/11 08:57:24;;;;;;;4.47;1.58;;;9.70;99.90;;;;;;5084078;28;20043;-91
2023/04/11 08:59:51;;;;;;;6.88;1.98;;;10.00;99.90;;;;;;5081131;28;20373;-90
2023/04/11 09:02:17;;;;;;;7.28;1.95;;;10.50;99.90;;;;;;5079322;28;20039;-89
2023/04/11 09:04:43;;;;;;;6.57;1.52;;;10.60;99.90;;;;;;5082507;28;20045;-90
2023/04/11 09:07:10;;;;;;;11.18;2.20;;;10.60;99.90;;;;;;5083951;28;20123;-90
2023/04/11 09:09:38;;;;;;;8.45;1.80;;;10.70;99.90;;;;;;5084262;28;20271;-89
2023/04/11 09:12:04;;;;;;;8.18;2.22;;;10.70;99.90;;;;;;5071234;28;20382;-91
2023/04/11 09:14:30;;;;;;;4.13;1.65;;;10.20;99.90;;;;;;5078708;28;20040;-89
2023/04/11 09:17:00;;;;;;;6.18;1.63;;;9.80;99.90;;;;;;5063211;28;20118;-90
2023/04/11 09:19:28;;;;;;;5.65;1.42;;;9.60;99.90;;;;;;5082795;28;20040;-89
2023/04/11 09:21:56;;;;;;;6.80;1.58;;;9.80;99.90;;;;;;5078643;28;20109;-90
2023/04/11 09:24:24;;;;;;;7.72;1.50;;;10.00;99.90;;;;;;5082592;28;20036;-91
2023/04/11 09:26:50;;;;;;;6.05;1.58;;;9.70;99.90;;;;;;5060675;28;20048;-91
2023/04/11 09:29:45;;;;;;;7.40;1.70;;;9.30;99.90;;;;;;5064847;28;20051;-91
2023/04/11 09:32:34;;;;;;;5.55;1.80;;;8.90;99.90;;;;;;5066996;28;20054;-90
2023/04/11 09:35:19;;;;;;;7.85;1.70;;;8.70;99.90;;;;;;5084529;28;20259;-89
2023/04/11 09:37:47;;;;;;;8.55;2.33;;;8.70;99.90;;;;;;5078443;28;20051;-89
2023/04/11 09:40:15;;;;;;;11.60;1.65;;;8.90;99.90;;;;;;5065162;28;20040;-89
2023/04/11 09:42:45;;;;;;;8.45;1.92;;;8.90;99.90;;;;;;5084565;28;20184;-89
2023/04/11 09:45:23;;;;;;;12.50;2.10;;;9.10;99.90;;;;;;5067536;28;20417;-90
2023/04/11 09:47:51;;;;;;;6.50;2.25;;;9.80;99.90;;;;;;5083841;28;20460;-90
2023/04/11 09:50:18;;;;;;;6.97;1.90;;;10.10;99.90;;;;;;5065673;28;20502;-90
2023/04/11 09:52:44;;;;;;;7.05;2.08;;;10.30;99.90;;;;;;5071130;28;20044;-90
2023/04/11 09:55:13;;;;;;;7.32;1.70;;;10.60;99.90;;;;;;5084633;28;20081;-90
2023/04/11 09:57:47;;;;;;;8.55;2.17;;;10.50;99.90;;;;;;5083507;28;20119;-91
2023/04/11 10:00:28;;;;;;;7.40;1.75;;;10.30;99.90;;;;;;5083750;28;20119;-90
2023/04/11 10:02:54;;;;;;;5.95;1.70;;;10.00;99.90;;;;;;5068004;28;20340;-90
2023/04/11 10:05:27;;;;;;;6.60;3.05;;;10.40;99.90;;;;;;5086317;28;20173;-90
2023/04/11 10:08:20;;;;;;;10.70;2.20;;;10.70;99.90;;;;;;5097545;27;20058;-90
2023/04/11 10:10:46;;;;;;;6.43;1.92;;;11.20;99.90;;;;;;5084470;28;20036;-91
2023/04/11 10:13:45;;;;;;;8.68;2.03;;;11.40;99.90;;;;;;5070510;28;20299;-91
2023/04/11 10:16:17;;;;;;;10.27;2.03;;;11.20;99.90;;;;;;5085669;28;20118;-90
2023/04/11 10:18:52;;;;;;;8.40;1.90;;;11.20;99.90;;;;;;5072634;28;20047;-90
2023/04/11 10:21:31;;;;;;;6.93;1.85;;;11.40;99.90;;;;;;5069288;28;20563;-90
2023/04/11 10:24:10;;;;;;;7.20;2.20;;;11.40;99.90;;;;;;5090433;28;20039;-91
2023/04/11 10:26:56;;;;;;;12.05;2.42;;;11.30;99.90;;;;;;5080156;28;20047;-90
2023/04/11 10:29:28;;;;;;;7.38;1.77;;;11.50;99.90;;;;;;5082998;28;20047;-91
2023/04/11 10:32:41;;;;;;;10.07;1.83;;;11.20;99.90;;;;;;5073933;28;20043;-89
2023/04/11 10:35:16;;;;;;;4.28;1.02;;;10.70;99.90;;;;;;5081208;28;20246;-90
2023/04/11 10:37:42;;;;;;;2.10;0.52;;;9.60;99.90;;;;;;5065526;28;20831;-89
2023/04/11 10:40:11;;;;;;;2.58;0.73;;;8.40;99.90;;;;;;5100708;27;20123;-90
2023/04/11 10:42:44;;;;;;;3.47;1.05;;;7.50;99.90;;;;;;5066980;28;20044;-89
2023/04/11 10:45:31;;;;;;;3.08;1.20;;;7.60;99.90;;;;;;5083516;28;20044;-88
2023/04/11 10:48:11;;;;;;;4.13;1.00;;;7.30;99.90;;;;;;5063806;28;20089;-90
2023/04/11 10:50:47;;;;;;;4.82;1.15;;;7.10;99.90;;;;;;5068044;28;20044;-91
2023/04/11 10:53:35;;;;;;;2.63;0.95;;;7.00;99.90;;;;;;5062089;28;20044;-90
2023/04/11 10:56:04;;;;;;;3.05;1.30;;;7.00;99.90;;;;;;5084202;28;20040;-91
2023/04/11 10:58:38;;;;;;;3.33;1.23;;;6.80;99.90;;;;;;5082855;28;20427;-90
2023/04/11 11:01:17;;;;;;;4.82;1.55;;;7.00;99.90;;;;;;5082480;28;20469;-90
2023/04/11 11:03:55;;;;;;;3.72;1.38;;;7.00;99.90;;;;;;5081692;28;20044;-89
2023/04/11 11:06:21;;;;;;;7.55;1.73;;;7.00;99.90;;;;;;5082337;28;20080;-91
2023/04/11 11:08:50;;;;;;;4.07;1.33;;;6.90;99.90;;;;;;5067559;28;20051;-91
2023/04/11 11:11:18;;;;;;;3.20;1.23;;;7.20;99.90;;;;;;5067698;28;20933;-90
2023/04/11 11:13:49;;;;;;;3.78;1.40;;;6.80;99.90;;;;;;5064789;28;20486;-91
2023/04/11 11:16:17;;;;;;;5.32;1.25;;;7.40;99.90;;;;;;5088018;28;20151;-91
2023/04/11 11:18:47;;;;;;;5.65;1.02;;;7.40;99.90;;;;;;5064749;28;20048;-91
2023/04/11 11:21:14;;;;;;;6.60;1.90;;;7.50;99.90;;;;;;5069022;28;20061;-90
2023/04/11 11:23:59;;;;;;;5.85;1.60;;;7.60;99.90;;;;;;5068493;28;20395;-90
2023/04/11 11:26:38;;;;;;;5.15;1.60;;;7.70;99.90;;;;;;5080965;28;20032;-89
2023/04/11 11:29:07;;;;;;;5.53;1.60;;;7.90;99.90;;;;;;5065592;28;20259;-89
2023/04/11 11:31:40;;;;;;;5.63;1.35;;;8.10;99.90;;;;;;5081400;28;20067;-89
2023/04/11 11:34:07;;;;;;;4.57;1.40;;;8.20;99.90;;;;;;5080381;28;20111;-89
2023/04/11 11:36:37;;;;;;;6.20;1.25;;;8.50;99.90;;;;;;5081067;28;20522;-89
2023/04/11 11:39:04;;;;;;;6.28;2.08;;;8.80;99.90;;;;;;5072865;28;20127;-89
2023/04/11 11:41:32;;;;;;;4.18;1.48;;;9.20;99.90;;;;;;5082882;28;20036;-87
2023/04/11 11:43:58;;;;;;;6.43;1.70;;;8.80;99.90;;;;;;5083398;28;20039;-89
2023/04/11 11:46:29;;;;;;;4.57;1.55;;;8.50;99.90;;;;;;5068929;28;20036;-89
2023/04/11 11:49:02;;;;;;;5.55;1.75;;;8.20;99.90;;;;;;5080231;28;20036;-90
2023/04/11 11:51:41;;;;;;;4.40;1.63;;;7.90;99.90;;;;;;5083607;28;20061;-89
2023/04/11 11:54:09;;;;;;;8.85;2.13;;;7.50;99.90;;;;;;5080973;28;20126;-89
2023/04/11 11:56:36;;;;;;;7.00;2.60;;;7.20;99.90;;;;;;5082937;28;20044;-89
2023/04/11 11:59:05;;;;;;;5.75;1.65;;;7.10;99.90;;;;;;5080741;28;20044;-88
2023/04/11 12:01:36;;;;;;;9.93;1.58;;;7.20;99.90;;;;;;5078583;28;20132;-89
2023/04/11 12:04:05;;;;;;;7.78;2.20;;;7.30;99.90;;;;;;5099020;27;20113;-89
2023/04/11 12:06:31;;;;;;;11.02;2.83;;;7.50;99.90;;;;;;5077770;28;20357;-89
2023/04/11 12:09:07;;;;;;;7.85;2.40;;;7.80;99.90;;;;;;5065674;28;20373;-88
2023/04/11 12:11:47;;;;;;;10.95;2.40;;;8.10;99.90;;;;;;5083820;28;20446;-89
2023/04/11 12:14:21;;;;;;;12.82;2.65;;;8.60;99.90;;;;;;5094181;28;20410;-89
2023/04/11 12:16:53;;;;;;;;;;;9.10;99.90;;;;;;5063478;28;20513;-89
2023/04/11 12:19:19;;;;;;;12.07;2.50;;;9.10;99.90;;;;;;5095946;27;20010;-88
2023/04/11 12:21:44;;;;;;;7.97;2.25;;;9.60;99.90;;;;;;5067049;28;20123;-88
2023/04/11 12:24:10;;;;;;;11.02;2.60;;;9.80;99.90;;;;;;5072789;28;20111;-89
2023/04/11 12:26:36;;;;;;;8.50;2.90;;;9.80;99.90;;;;;;5064711;28;20040;-89
2023/04/11 12:29:06;;;;;;;11.13;2.58;;;10.00;99.90;;;;;;5076870;28;20490;-88
2023/04/11 12:31:31;;;;;;;10.05;2.30;;;9.90;99.90;;;;;;5081348;28;20573;-88
2023/04/11 12:33:57;;;;;;;7.50;1.80;;;10.30;99.90;;;;;;5076462;28;20102;-88
2023/04/11 12:36:23;;;;;;;6.93;1.83;;;10.10;99.90;;;;;;5079603;28;20143;-88
2023/04/11 12:38:48;;;;;;;10.40;2.13;;;9.90;99.90;;;;;;5065351;28;20047;-88
2023/04/11 12:41:15;;;;;;;10.35;2.17;;;9.80;99.90;;;;;;5066178;28;20473;-89
2023/04/11 12:43:41;;;;;;;11.77;1.90;;;9.70;99.90;;;;;;5071154;28;20123;-89
2023/04/11 12:46:10;;;;;;;7.68;1.50;;;9.80;99.90;;;;;;5082368;28;20050;-89
2023/04/11 12:48:36;;;;;;;8.82;2.28;;;9.80;99.90;;;;;;5080594;28;20916;-89
2023/04/11 12:51:01;;;;;;;5.32;1.88;;;10.00;99.90;;;;;;5062964;28;20416;-89
2023/04/11 12:53:27;;;;;;;11.52;2.55;;;9.90;99.90;;;;;;5084716;28;20032;-90
2023/04/11 12:55:52;;;;;;;9.20;2.00;;;9.90;99.90;;;;;;5084640;28;20089;-89
2023/04/11 12:58:18;;;;;;;8.07;1.67;;;10.00;99.90;;;;;;5066308;28;20570;-89